Wildwood, Canada
Current Conditions -  °F | °C
As of 10:00 PM on Tuesday 25 Nov 2014 (Local Time) from CYZU Reporting Station
Overcast Overcast  
Wind Chill:   Ceiling: 1300
Heat Index: 18°   Visibility: 15mi
Dew Point: 14°   Wind: 6mph
Humidity: 86%   Direction: 100°E
Pressure: 30.13"   Gusts: NA
Location:  53.62°N, 115.25°W
Report Text: CYZU 260500Z 10005KT 15SM BKN013 OVC060 M08/M10 A3013 RMK SF5SC3 SLP255
Loading
Personal Weather Stations






























Interactive Weather Map New forecast layout! Learn more

10-Day Weather Forecast

Advertisements
Track Severe Weather on mobile